Terminal Aerodrome Forecast
Issued by NWS

Home | Current Version | Previous Version | Text Only | Print | Product List | Glossary On
Versions: 1 2 3 4 5 6 7 8 9 10 11 12 13 14
561
FTUS46 KMTR 241726
TAFSJC
TAF
KSJC 241726Z 2418/2518 29004KT P6SM FEW005 BKN200
     FM242000 31008KT P6SM SCT120 BKN200
     FM250400 33003KT P6SM FEW150 BKN200
     FM251000 06003KT P6SM BKN200=

USA.gov is the U.S. government's official web portal to all federal, state and local government web resources and services.